Time;durP1;ratioP1;P1;durP2;ratioP2;P2;SDS_P1;SDS_P2;PMS_P1;PMS_P2;Temp;Humidity;BMP_temperature;BMP_pressure;BME280_temperature;BME280_humidity;BME280_pressure;Samples;Min_cycle;Max_cycle;Signal;HPM_P1;HPM_P2
2023/08/05 00:01:56;;;;;;;11.77;4.23;;;;;;;;;;5139140;27;20687;-88
2023/08/05 00:04:23;;;;;;;7.83;3.70;;;;;;;;;;5138834;27;20225;-87
2023/08/05 00:06:50;;;;;;;9.03;4.50;;;;;;;;;;5138929;27;20224;-88
2023/08/05 00:09:17;;;;;;;11.20;4.20;;;;;;;;;;5140111;27;20212;-86
2023/08/05 00:11:45;;;;;;;8.73;4.20;;;;;;;;;;5138507;27;20264;-87
2023/08/05 00:14:14;;;;;;;8.03;4.47;;;;;;;;;;5138156;27;20224;-87
2023/08/05 00:16:42;;;;;;;8.53;4.10;;;;;;;;;;5128406;27;20202;-87
2023/08/05 00:19:09;;;;;;;9.33;4.20;;;;;;;;;;5117830;27;20233;-87
2023/08/05 00:21:36;;;;;;;10.47;4.40;;;;;;;;;;5118074;28;20189;-87
2023/08/05 00:24:03;;;;;;;8.77;4.00;;;;;;;;;;5120503;28;20217;-87
2023/08/05 00:26:30;;;;;;;9.77;4.00;;;;;;;;;;5119667;28;20198;-87
2023/08/05 00:28:58;;;;;;;10.83;4.37;;;;;;;;;;5118952;28;20280;-87
2023/08/05 00:31:27;;;;;;;13.00;4.50;;;;;;;;;;5118060;28;20202;-86
2023/08/05 00:33:54;;;;;;;10.47;4.23;;;;;;;;;;5119689;28;20210;-87
2023/08/05 00:36:21;;;;;;;11.07;4.17;;;;;;;;;;5119610;28;20246;-87
2023/08/05 00:38:49;;;;;;;7.50;3.93;;;;;;;;;;5119173;28;20243;-88
2023/08/05 00:41:16;;;;;;;7.03;3.80;;;;;;;;;;5118134;28;20226;-87
2023/08/05 00:43:43;;;;;;;7.67;4.30;;;;;;;;;;5116575;28;20240;-87
2023/08/05 00:46:11;;;;;;;10.60;3.87;;;;;;;;;;5118771;28;20623;-88
2023/08/05 00:48:40;;;;;;;8.77;4.37;;;;;;;;;;5117152;28;20198;-87
2023/08/05 00:51:08;;;;;;;8.43;3.90;;;;;;;;;;5117508;28;20235;-88
2023/08/05 00:53:36;;;;;;;9.97;4.77;;;;;;;;;;5118176;28;20194;-87
2023/08/05 00:56:03;;;;;;;8.47;4.17;;;;;;;;;;5117727;28;20240;-86
2023/08/05 00:58:32;;;;;;;10.87;4.60;;;;;;;;;;5116595;28;20190;-87
2023/08/05 01:01:00;;;;;;;9.43;4.10;;;;;;;;;;5117683;28;20241;-87
2023/08/05 01:03:27;;;;;;;8.50;4.50;;;;;;;;;;5115168;28;20186;-88
2023/08/05 01:05:56;;;;;;;9.50;4.93;;;;;;;;;;5116561;28;20760;-88
2023/08/05 01:08:23;;;;;;;9.33;4.07;;;;;;;;;;5116862;28;20286;-87
2023/08/05 01:10:51;;;;;;;7.57;4.27;;;;;;;;;;5116931;28;20276;-87
2023/08/05 01:13:19;;;;;;;11.70;4.67;;;;;;;;;;5116703;28;20281;-87
2023/08/05 01:15:46;;;;;;;7.47;4.40;;;;;;;;;;5116770;28;20201;-87
2023/08/05 01:18:14;;;;;;;8.17;4.37;;;;;;;;;;5119396;28;20197;-88
2023/08/05 01:20:45;;;;;;;7.33;4.50;;;;;;;;;;5118186;28;20347;-88
2023/08/05 01:23:15;;;;;;;8.40;4.40;;;;;;;;;;5119101;28;20221;-87
2023/08/05 01:25:44;;;;;;;8.63;4.50;;;;;;;;;;5117997;28;20190;-88
2023/08/05 01:28:12;;;;;;;9.87;4.60;;;;;;;;;;5118660;28;20639;-88
2023/08/05 01:30:39;;;;;;;10.47;4.70;;;;;;;;;;5118149;28;20297;-86
2023/08/05 01:33:08;;;;;;;9.77;4.50;;;;;;;;;;5118980;28;20202;-88
2023/08/05 01:35:35;;;;;;;7.93;4.60;;;;;;;;;;5117249;28;20215;-88
2023/08/05 01:38:02;;;;;;;9.67;5.20;;;;;;;;;;5118667;28;20712;-89
2023/08/05 01:40:30;;;;;;;13.17;5.30;;;;;;;;;;5117333;28;20214;-88
2023/08/05 01:42:59;;;;;;;11.10;4.77;;;;;;;;;;5116945;28;20272;-88
2023/08/05 01:45:26;;;;;;;9.73;4.73;;;;;;;;;;5119239;28;20297;-88
2023/08/05 01:47:56;;;;;;;8.57;4.77;;;;;;;;;;5116921;28;20285;-88
2023/08/05 01:50:24;;;;;;;10.90;5.03;;;;;;;;;;5116561;28;20204;-88
2023/08/05 01:52:53;;;;;;;13.43;5.13;;;;;;;;;;5117574;28;20665;-88
2023/08/05 01:55:21;;;;;;;10.33;5.00;;;;;;;;;;5117832;28;20186;-88
2023/08/05 01:57:49;;;;;;;9.80;4.87;;;;;;;;;;5117018;28;20226;-89
2023/08/05 02:00:20;;;;;;;8.53;4.83;;;;;;;;;;5116305;28;20237;-89
2023/08/05 02:02:48;;;;;;;14.30;5.37;;;;;;;;;;5117266;28;20190;-88
2023/08/05 02:05:15;;;;;;;13.47;5.60;;;;;;;;;;5117009;28;20677;-88
2023/08/05 02:07:43;;;;;;;12.00;5.30;;;;;;;;;;5117783;28;20267;-88
2023/08/05 02:10:10;;;;;;;8.90;5.07;;;;;;;;;;5116439;28;20629;-87
2023/08/05 02:12:37;;;;;;;12.00;4.90;;;;;;;;;;5118312;28;20646;-88
2023/08/05 02:15:05;;;;;;;15.97;5.40;;;;;;;;;;5115799;28;20673;-86
2023/08/05 02:17:34;;;;;;;8.80;5.10;;;;;;;;;;5132692;27;20227;-88
2023/08/05 02:20:04;;;;;;;10.43;5.50;;;;;;;;;;5137427;27;20228;-89
2023/08/05 02:22:31;;;;;;;10.40;5.27;;;;;;;;;;5136724;27;20609;-88
2023/08/05 02:24:59;;;;;;;11.23;5.17;;;;;;;;;;5137793;27;20199;-88
2023/08/05 02:27:26;;;;;;;8.57;4.83;;;;;;;;;;5136877;27;21095;-87
2023/08/05 02:29:54;;;;;;;13.07;5.47;;;;;;;;;;5137112;27;20208;-88
2023/08/05 02:32:21;;;;;;;10.53;5.43;;;;;;;;;;5137870;27;20224;-88
2023/08/05 02:34:49;;;;;;;12.10;5.07;;;;;;;;;;5124241;27;20821;-87
2023/08/05 02:37:17;;;;;;;10.67;5.43;;;;;;;;;;5117171;28;20220;-88
2023/08/05 02:39:44;;;;;;;10.77;5.70;;;;;;;;;;5116115;28;20272;-88
2023/08/05 02:42:11;;;;;;;9.13;5.20;;;;;;;;;;5116521;28;20616;-88
2023/08/05 02:44:38;;;;;;;9.63;5.20;;;;;;;;;;5116471;28;20225;-88
2023/08/05 02:47:05;;;;;;;12.57;5.53;;;;;;;;;;5117400;28;20289;-88
2023/08/05 02:49:34;;;;;;;11.27;5.70;;;;;;;;;;5116451;28;20713;-88
2023/08/05 02:52:03;;;;;;;12.87;5.80;;;;;;;;;;5116748;28;20193;-88
2023/08/05 02:54:30;;;;;;;11.93;5.20;;;;;;;;;;5116184;28;20236;-88
2023/08/05 02:56:58;;;;;;;8.60;5.23;;;;;;;;;;5115949;28;20194;-88
2023/08/05 02:59:25;;;;;;;8.70;4.97;;;;;;;;;;5115276;28;20229;-87
2023/08/05 03:01:52;;;;;;;8.57;4.93;;;;;;;;;;5116975;28;20272;-88
2023/08/05 03:04:19;;;;;;;9.33;4.90;;;;;;;;;;5117090;28;20220;-88
2023/08/05 03:06:47;;;;;;;8.80;4.83;;;;;;;;;;5117380;28;20289;-88
2023/08/05 03:09:15;;;;;;;9.63;5.00;;;;;;;;;;5115254;28;20214;-89
2023/08/05 03:11:42;;;;;;;10.93;4.90;;;;;;;;;;5114966;28;20189;-88
2023/08/05 03:14:10;;;;;;;12.30;5.80;;;;;;;;;;5115269;28;20209;-87
2023/08/05 03:16:38;;;;;;;9.20;5.00;;;;;;;;;;5124057;27;20200;-87
2023/08/05 03:19:05;;;;;;;8.40;4.90;;;;;;;;;;5136185;27;20216;-86
2023/08/05 03:21:32;;;;;;;12.37;5.67;;;;;;;;;;5135250;27;20273;-87
2023/08/05 03:23:59;;;;;;;9.97;5.17;;;;;;;;;;5135627;27;20203;-88
2023/08/05 03:26:28;;;;;;;11.20;5.13;;;;;;;;;;5134559;27;20632;-87
2023/08/05 03:28:56;;;;;;;10.03;5.27;;;;;;;;;;5135956;27;20741;-88
2023/08/05 03:31:23;;;;;;;12.50;5.57;;;;;;;;;;5135687;27;20701;-88
2023/08/05 03:33:51;;;;;;;10.47;5.53;;;;;;;;;;5137719;27;20713;-87
2023/08/05 03:36:18;;;;;;;12.07;5.33;;;;;;;;;;5134851;27;20288;-87
2023/08/05 03:38:45;;;;;;;8.70;5.20;;;;;;;;;;5135579;27;20220;-86
2023/08/05 03:41:12;;;;;;;15.50;5.10;;;;;;;;;;5135726;27;20213;-87
2023/08/05 03:43:41;;;;;;;9.80;5.00;;;;;;;;;;5135346;27;20291;-87
2023/08/05 03:46:09;;;;;;;12.07;5.07;;;;;;;;;;5136255;27;20181;-87
2023/08/05 03:48:37;;;;;;;13.60;5.70;;;;;;;;;;5134079;27;20193;-87
2023/08/05 03:51:04;;;;;;;9.17;4.53;;;;;;;;;;5135993;27;20197;-87
2023/08/05 03:53:31;;;;;;;11.97;4.97;;;;;;;;;;5134850;27;20272;-87
2023/08/05 03:55:58;;;;;;;10.50;5.23;;;;;;;;;;5135392;27;20185;-87
2023/08/05 03:58:26;;;;;;;9.33;5.43;;;;;;;;;;5136530;28;20247;-86
2023/08/05 04:00:55;;;;;;;11.83;6.10;;;;;;;;;;5135133;27;20236;-87
2023/08/05 04:03:22;;;;;;;9.63;5.60;;;;;;;;;;5136802;27;20197;-87
2023/08/05 04:05:51;;;;;;;11.83;5.47;;;;;;;;;;5135269;27;20200;-87
2023/08/05 04:08:19;;;;;;;10.63;5.97;;;;;;;;;;5135119;27;20201;-87
2023/08/05 04:10:47;;;;;;;10.23;5.63;;;;;;;;;;5134475;27;20185;-87
2023/08/05 04:13:16;;;;;;;11.90;5.83;;;;;;;;;;5134040;27;20914;-88
2023/08/05 04:15:45;;;;;;;14.80;6.00;;;;;;;;;;5134395;27;20564;-88
2023/08/05 04:18:13;;;;;;;11.43;5.53;;;;;;;;;;5133559;27;20204;-87
2023/08/05 04:20:41;;;;;;;13.23;6.00;;;;;;;;;;5133258;28;20213;-87
2023/08/05 04:23:09;;;;;;;9.23;5.67;;;;;;;;;;5133243;28;20320;-87
2023/08/05 04:25:36;;;;;;;11.80;5.60;;;;;;;;;;5133475;27;20640;-93
2023/08/05 04:28:03;;;;;;;10.40;5.40;;;;;;;;;;5133564;27;20217;-87
2023/08/05 04:30:31;;;;;;;10.90;5.40;;;;;;;;;;5133374;27;20254;-88
2023/08/05 04:32:58;;;;;;;10.87;5.83;;;;;;;;;;5133273;27;20215;-88
2023/08/05 04:35:27;;;;;;;8.67;4.93;;;;;;;;;;5132184;27;20276;-86
2023/08/05 04:37:54;;;;;;;8.03;5.30;;;;;;;;;;5134621;27;20193;-86
2023/08/05 04:40:22;;;;;;;8.93;5.07;;;;;;;;;;5136175;27;20224;-85
2023/08/05 04:42:49;;;;;;;9.67;5.23;;;;;;;;;;5136225;27;20234;-85
2023/08/05 04:45:16;;;;;;;10.27;5.00;;;;;;;;;;5136479;27;20271;-86
2023/08/05 04:47:43;;;;;;;11.47;5.00;;;;;;;;;;5135522;27;20207;-86
2023/08/05 04:50:11;;;;;;;7.53;5.00;;;;;;;;;;5136008;27;20276;-85
2023/08/05 04:52:39;;;;;;;11.07;4.90;;;;;;;;;;5136308;27;20225;-86
2023/08/05 04:55:10;;;;;;;11.03;5.20;;;;;;;;;;5136392;27;20220;-86
2023/08/05 04:57:37;;;;;;;10.77;5.83;;;;;;;;;;5136525;27;20205;-85
2023/08/05 05:00:05;;;;;;;11.70;5.30;;;;;;;;;;5136159;27;20308;-86
2023/08/05 05:02:32;;;;;;;10.47;5.67;;;;;;;;;;5136542;27;20276;-88
2023/08/05 05:04:59;;;;;;;8.67;5.30;;;;;;;;;;5136261;27;20264;-87
2023/08/05 05:07:26;;;;;;;9.77;5.63;;;;;;;;;;5136593;27;20290;-86
2023/08/05 05:09:55;;;;;;;10.30;5.73;;;;;;;;;;5136403;27;20193;-87
2023/08/05 05:12:23;;;;;;;10.00;5.50;;;;;;;;;;5136599;27;20207;-87
2023/08/05 05:14:50;;;;;;;10.97;5.27;;;;;;;;;;5136386;27;20699;-87
2023/08/05 05:17:17;;;;;;;9.17;5.40;;;;;;;;;;5121650;27;20705;-87
2023/08/05 05:19:45;;;;;;;9.10;5.10;;;;;;;;;;5115484;28;20633;-87
2023/08/05 05:22:17;;;;;;;9.20;5.37;;;;;;;;;;5115591;28;20325;-87
2023/08/05 05:24:44;;;;;;;10.70;5.47;;;;;;;;;;5116027;28;20221;-88
2023/08/05 05:27:13;;;;;;;13.43;5.73;;;;;;;;;;5115703;28;20217;-87
2023/08/05 05:29:41;;;;;;;10.13;6.00;;;;;;;;;;5115647;28;20194;-87
2023/08/05 05:32:08;;;;;;;10.73;5.20;;;;;;;;;;5115630;28;20205;-87
2023/08/05 05:34:36;;;;;;;10.20;5.13;;;;;;;;;;5115879;28;20233;-87
2023/08/05 05:37:03;;;;;;;11.40;5.47;;;;;;;;;;5115958;28;20223;-87
2023/08/05 05:39:30;;;;;;;11.53;5.43;;;;;;;;;;5115486;28;20265;-86
2023/08/05 05:41:58;;;;;;;11.03;5.53;;;;;;;;;;5114700;28;20316;-85
2023/08/05 05:44:28;;;;;;;11.73;5.50;;;;;;;;;;5114906;28;20250;-86
2023/08/05 05:46:55;;;;;;;8.27;5.30;;;;;;;;;;5114622;28;20198;-87
2023/08/05 05:49:22;;;;;;;9.17;5.07;;;;;;;;;;5114607;28;20225;-87
2023/08/05 05:51:50;;;;;;;8.53;4.73;;;;;;;;;;5115186;28;20681;-87
2023/08/05 05:54:17;;;;;;;12.27;4.97;;;;;;;;;;5115379;28;20229;-87
2023/08/05 05:56:44;;;;;;;8.80;4.93;;;;;;;;;;5115173;28;20676;-86
2023/08/05 05:59:11;;;;;;;11.77;4.93;;;;;;;;;;5115016;28;20194;-87
2023/08/05 06:01:40;;;;;;;10.20;5.57;;;;;;;;;;5114662;28;20248;-87
2023/08/05 06:04:09;;;;;;;13.23;5.30;;;;;;;;;;5114722;28;20233;-86
2023/08/05 06:06:36;;;;;;;12.77;4.90;;;;;;;;;;5113553;28;20658;-87
2023/08/05 06:09:04;;;;;;;7.93;4.60;;;;;;;;;;5116116;28;20257;-87
2023/08/05 06:11:32;;;;;;;12.27;4.93;;;;;;;;;;5115272;28;20205;-87
2023/08/05 06:14:00;;;;;;;8.80;5.03;;;;;;;;;;5115366;28;20200;-87
2023/08/05 06:16:27;;;;;;;8.10;5.20;;;;;;;;;;5122869;27;20292;-86
2023/08/05 06:18:55;;;;;;;9.57;4.90;;;;;;;;;;5135874;27;20217;-87
2023/08/05 06:21:23;;;;;;;8.63;4.63;;;;;;;;;;5135513;27;20224;-88
2023/08/05 06:23:50;;;;;;;11.00;5.43;;;;;;;;;;5135424;27;20181;-88
2023/08/05 06:26:17;;;;;;;7.43;4.50;;;;;;;;;;5135420;27;20222;-88
2023/08/05 06:28:45;;;;;;;9.97;4.47;;;;;;;;;;5136245;27;20209;-90
2023/08/05 06:31:12;;;;;;;9.50;4.87;;;;;;;;;;5135967;27;20641;-88
2023/08/05 06:33:39;;;;;;;8.90;5.47;;;;;;;;;;5135764;27;20228;-88
2023/08/05 06:36:08;;;;;;;11.43;4.77;;;;;;;;;;5136937;27;20207;-88
2023/08/05 06:38:35;;;;;;;9.10;4.60;;;;;;;;;;5135489;27;20284;-88
2023/08/05 06:41:03;;;;;;;8.57;4.73;;;;;;;;;;5135506;27;20217;-89
2023/08/05 06:43:30;;;;;;;8.97;4.50;;;;;;;;;;5135802;27;20281;-89
2023/08/05 06:45:57;;;;;;;8.83;4.40;;;;;;;;;;5135287;27;20733;-88
2023/08/05 06:48:25;;;;;;;8.77;4.27;;;;;;;;;;5135391;27;20193;-88
2023/08/05 06:50:52;;;;;;;8.93;4.53;;;;;;;;;;5136637;27;20197;-89
2023/08/05 06:53:21;;;;;;;8.33;4.10;;;;;;;;;;5136899;27;20197;-89
2023/08/05 06:55:48;;;;;;;8.80;4.60;;;;;;;;;;5134843;27;20281;-89
2023/08/05 06:58:16;;;;;;;7.87;4.70;;;;;;;;;;5136452;27;20193;-89
2023/08/05 07:00:43;;;;;;;10.40;4.93;;;;;;;;;;5135503;27;20270;-90
2023/08/05 07:03:11;;;;;;;9.03;4.37;;;;;;;;;;5139251;27;20225;-89
2023/08/05 07:05:38;;;;;;;7.03;4.17;;;;;;;;;;5136205;27;20288;-87
2023/08/05 07:08:06;;;;;;;7.90;4.27;;;;;;;;;;5136631;27;20708;-88
2023/08/05 07:10:35;;;;;;;8.23;4.17;;;;;;;;;;5134950;27;20217;-87
2023/08/05 07:13:05;;;;;;;7.93;4.30;;;;;;;;;;5136815;27;20220;-87
2023/08/05 07:15:32;;;;;;;8.77;4.77;;;;;;;;;;5134976;27;20185;-87
2023/08/05 07:18:00;;;;;;;7.87;4.13;;;;;;;;;;5116853;28;20297;-88
2023/08/05 07:20:27;;;;;;;6.73;3.93;;;;;;;;;;5116518;28;20202;-88
2023/08/05 07:22:54;;;;;;;8.17;4.07;;;;;;;;;;5116484;28;20724;-88
2023/08/05 07:25:22;;;;;;;6.63;4.13;;;;;;;;;;5115290;28;20244;-89
2023/08/05 07:27:51;;;;;;;10.13;3.70;;;;;;;;;;5118333;28;20221;-89
2023/08/05 07:30:18;;;;;;;5.80;3.90;;;;;;;;;;5117908;28;20252;-88
2023/08/05 07:32:47;;;;;;;8.27;4.20;;;;;;;;;;5117113;28;20229;-88
2023/08/05 07:35:15;;;;;;;8.90;3.87;;;;;;;;;;5115873;28;20666;-88
2023/08/05 07:37:42;;;;;;;6.20;3.50;;;;;;;;;;5114624;28;20281;-87
2023/08/05 07:40:12;;;;;;;8.70;3.90;;;;;;;;;;5115723;28;20203;-86
2023/08/05 07:42:42;;;;;;;5.33;3.40;;;;;;;;;;5116133;28;20217;-89
2023/08/05 07:45:16;;;;;;;7.13;3.73;;;;;;;;;;5117697;28;20193;-89
2023/08/05 07:47:43;;;;;;;8.07;3.93;;;;;;;;;;5114965;28;20284;-88
2023/08/05 07:50:13;;;;;;;5.07;3.37;;;;;;;;;;5114929;28;20936;-87
2023/08/05 07:52:41;;;;;;;5.97;3.43;;;;;;;;;;5115394;28;20194;-88
2023/08/05 07:55:08;;;;;;;7.63;3.40;;;;;;;;;;5116907;28;20189;-88
2023/08/05 07:57:36;;;;;;;6.87;3.20;;;;;;;;;;5115644;28;20895;-88
2023/08/05 08:00:04;;;;;;;6.67;3.40;;;;;;;;;;5114305;28;20287;-87
2023/08/05 08:02:33;;;;;;;5.93;3.50;;;;;;;;;;5116777;28;20271;-87
2023/08/05 08:05:04;;;;;;;5.20;3.27;;;;;;;;;;5116790;28;20198;-88
2023/08/05 08:07:31;;;;;;;4.20;2.90;;;;;;;;;;5115299;28;20194;-86
2023/08/05 08:09:59;;;;;;;5.70;3.30;;;;;;;;;;5115134;28;20213;-87
2023/08/05 08:12:26;;;;;;;10.27;3.57;;;;;;;;;;5117002;28;20255;-87
2023/08/05 08:14:53;;;;;;;6.70;3.70;;;;;;;;;;5119942;28;20221;-88
2023/08/05 08:17:20;;;;;;;6.40;3.10;;;;;;;;;;5132055;27;20231;-88
2023/08/05 08:19:50;;;;;;;6.50;3.27;;;;;;;;;;5139966;27;20228;-87
2023/08/05 08:22:17;;;;;;;5.60;3.20;;;;;;;;;;5140490;27;20267;-88
2023/08/05 08:24:44;;;;;;;6.47;3.20;;;;;;;;;;5142152;27;20289;-88
2023/08/05 08:27:11;;;;;;;6.73;3.30;;;;;;;;;;5139174;27;20264;-87
2023/08/05 08:29:39;;;;;;;6.97;3.80;;;;;;;;;;5141621;27;20222;-87
2023/08/05 08:32:06;;;;;;;6.83;3.60;;;;;;;;;;5139931;27;20284;-87
2023/08/05 08:34:34;;;;;;;7.53;3.33;;;;;;;;;;5139691;27;20216;-87
2023/08/05 08:37:02;;;;;;;5.60;3.57;;;;;;;;;;5140052;27;20197;-88
2023/08/05 08:39:29;;;;;;;7.20;3.80;;;;;;;;;;5139745;27;20253;-87
2023/08/05 08:41:57;;;;;;;6.73;3.87;;;;;;;;;;5140290;27;20231;-88
2023/08/05 08:44:27;;;;;;;7.60;3.80;;;;;;;;;;5139656;27;20201;-88
2023/08/05 08:46:54;;;;;;;8.10;3.67;;;;;;;;;;5139914;27;20215;-86
2023/08/05 08:49:22;;;;;;;6.93;3.70;;;;;;;;;;5138453;27;20186;-87
2023/08/05 08:51:49;;;;;;;5.10;3.57;;;;;;;;;;5139813;27;20220;-87
2023/08/05 08:54:20;;;;;;;7.07;4.00;;;;;;;;;;5139766;27;20284;-88
2023/08/05 08:56:47;;;;;;;5.63;3.63;;;;;;;;;;5137682;27;20653;-87
2023/08/05 08:59:14;;;;;;;6.87;3.67;;;;;;;;;;5139308;27;20243;-87
2023/08/05 09:01:42;;;;;;;7.18;3.72;;;;;;;;;;5138468;27;20316;-86
2023/08/05 09:04:12;;;;;;;8.70;3.90;;;;;;;;;;5138978;27;20288;-88
2023/08/05 09:06:40;;;;;;;7.07;3.77;;;;;;;;;;5138769;27;20276;-88
2023/08/05 09:09:07;;;;;;;7.40;3.42;;;;;;;;;;5138609;27;20265;-90
2023/08/05 09:11:36;;;;;;;5.63;3.23;;;;;;;;;;5138762;27;20287;-89
2023/08/05 09:14:04;;;;;;;7.82;3.95;;;;;;;;;;5138531;27;20189;-89
2023/08/05 09:16:35;;;;;;;5.63;3.23;;;;;;;;;;5137674;27;20246;-88
2023/08/05 09:19:02;;;;;;;5.82;2.90;;;;;;;;;;5138943;27;20238;-87
2023/08/05 09:21:30;;;;;;;6.13;3.10;;;;;;;;;;5137931;27;20197;-87
2023/08/05 09:23:58;;;;;;;5.65;2.97;;;;;;;;;;5137943;27;20193;-89
2023/08/05 09:26:28;;;;;;;3.78;2.92;;;;;;;;;;5137407;27;20646;-88
2023/08/05 09:28:57;;;;;;;6.95;2.90;;;;;;;;;;5137584;27;20201;-87
2023/08/05 09:31:25;;;;;;;4.80;2.92;;;;;;;;;;5138438;27;20232;-88
2023/08/05 09:33:53;;;;;;;6.65;3.47;;;;;;;;;;5138659;27;20196;-88
2023/08/05 09:36:22;;;;;;;7.00;3.50;;;;;;;;;;5137559;27;20658;-88
2023/08/05 09:39:00;;;;;;;5.10;3.30;;;;;;;;;;5137070;27;20220;-88
2023/08/05 09:41:30;;;;;;;4.32;2.40;;;;;;;;;;5138947;27;20197;-90
2023/08/05 09:43:59;;;;;;;4.40;2.38;;;;;;;;;;5137828;27;20197;-89
2023/08/05 09:46:29;;;;;;;3.63;2.10;;;;;;;;;;5139131;27;20198;-88
2023/08/05 09:48:58;;;;;;;5.20;2.42;;;;;;;;;;5138591;27;20226;-89
2023/08/05 09:51:27;;;;;;;2.83;1.77;;;;;;;;;;5136785;27;20232;-87
2023/08/05 09:53:55;;;;;;;2.47;1.40;;;;;;;;;;5136338;27;20615;-88
2023/08/05 09:56:23;;;;;;;3.30;1.60;;;;;;;;;;5137840;27;20556;-89
2023/08/05 09:58:51;;;;;;;2.45;1.35;;;;;;;;;;5138753;27;20198;-89
2023/08/05 10:01:21;;;;;;;2.35;1.42;;;;;;;;;;5136071;27;20315;-89
2023/08/05 10:03:50;;;;;;;3.58;1.70;;;;;;;;;;5136455;27;20307;-88
2023/08/05 10:06:17;;;;;;;3.17;1.95;;;;;;;;;;5136666;27;20288;-87
2023/08/05 10:08:46;;;;;;;5.05;1.60;;;;;;;;;;5137910;27;20280;-88
2023/08/05 10:11:14;;;;;;;1.88;1.23;;;;;;;;;;5136934;27;20216;-88
2023/08/05 10:13:44;;;;;;;3.35;1.50;;;;;;;;;;5137741;27;20208;-89
2023/08/05 10:16:11;;;;;;;2.95;1.20;;;;;;;;;;5136813;27;20280;-86
2023/08/05 10:18:40;;;;;;;2.58;1.50;;;;;;;;;;5137557;27;20213;-87
2023/08/05 10:21:09;;;;;;;2.15;1.15;;;;;;;;;;5138131;27;20189;-87
2023/08/05 10:23:37;;;;;;;1.75;1.08;;;;;;;;;;5136888;27;20228;-88
2023/08/05 10:26:04;;;;;;;1.70;0.80;;;;;;;;;;5137121;27;20267;-89
2023/08/05 10:28:42;;;;;;;1.95;1.10;;;;;;;;;;5137101;27;20221;-88
2023/08/05 10:31:24;;;;;;;1.55;0.90;;;;;;;;;;5138944;27;20193;-88
2023/08/05 10:34:12;;;;;;;1.67;0.85;;;;;;;;;;5135562;27;20228;-86
2023/08/05 10:36:45;;;;;;;1.10;0.80;;;;;;;;;;5129894;27;20242;-89
2023/08/05 10:39:30;;;;;;;1.30;0.90;;;;;;;;;;5136021;27;20733;-89
2023/08/05 10:41:58;;;;;;;2.30;0.82;;;;;;;;;;5136174;27;20260;-89
2023/08/05 10:44:36;;;;;;;2.97;1.00;;;;;;;;;;5136020;27;20589;-89
2023/08/05 10:47:04;;;;;;;1.52;0.90;;;;;;;;;;5136659;27;20204;-88
2023/08/05 10:49:31;;;;;;;1.42;1.00;;;;;;;;;;5136752;27;20238;-89
2023/08/05 10:52:00;;;;;;;1.35;0.82;;;;;;;;;;5135928;27;20246;-88
2023/08/05 10:54:31;;;;;;;0.82;0.70;;;;;;;;;;5136635;27;20307;-88
2023/08/05 10:56:59;;;;;;;1.65;0.80;;;;;;;;;;5136457;27;20196;-88
2023/08/05 10:59:26;;;;;;;1.85;0.80;;;;;;;;;;5135860;27;20224;-88
2023/08/05 11:01:54;;;;;;;1.48;0.85;;;;;;;;;;5134814;27;20193;-89
2023/08/05 11:04:29;;;;;;;1.67;0.70;;;;;;;;;;5136029;27;20203;-89
2023/08/05 11:06:57;;;;;;;1.25;0.80;;;;;;;;;;5135793;27;20200;-88
2023/08/05 11:09:25;;;;;;;1.92;1.00;;;;;;;;;;5135314;27;20185;-88
2023/08/05 11:11:53;;;;;;;2.00;0.95;;;;;;;;;;5135441;27;20241;-87
2023/08/05 11:14:21;;;;;;;1.88;0.93;;;;;;;;;;5134650;27;20197;-89
2023/08/05 11:16:48;;;;;;;1.95;1.00;;;;;;;;;;5136563;27;20197;-88
2023/08/05 11:19:16;;;;;;;1.35;0.93;;;;;;;;;;5135340;27;20280;-88
2023/08/05 11:21:44;;;;;;;1.33;0.88;;;;;;;;;;5135451;27;20188;-89
2023/08/05 11:24:17;;;;;;;2.20;0.93;;;;;;;;;;5136402;27;20244;-89
2023/08/05 11:26:46;;;;;;;1.67;1.10;;;;;;;;;;5135467;28;20199;-88
2023/08/05 11:29:13;;;;;;;1.27;1.10;;;;;;;;;;5135806;28;20196;-87
2023/08/05 11:31:51;;;;;;;2.55;0.90;;;;;;;;;;5134359;28;20408;-88
2023/08/05 11:34:21;;;;;;;1.55;0.80;;;;;;;;;;5135366;28;20196;-88
2023/08/05 11:36:58;;;;;;;1.15;0.60;;;;;;;;;;5134963;28;20590;-88
2023/08/05 11:39:25;;;;;;;2.15;0.80;;;;;;;;;;5133819;27;20193;-87
2023/08/05 11:41:54;;;;;;;0.98;0.50;;;;;;;;;;5134588;28;20189;-89
2023/08/05 11:44:22;;;;;;;0.80;0.60;;;;;;;;;;5133976;28;20269;-86
2023/08/05 11:46:49;;;;;;;0.60;0.50;;;;;;;;;;5135745;27;20246;-88
2023/08/05 11:49:17;;;;;;;0.68;0.60;;;;;;;;;;5138482;27;20273;-88
2023/08/05 11:51:47;;;;;;;1.35;0.60;;;;;;;;;;5138142;27;20276;-87
2023/08/05 11:54:14;;;;;;;1.20;0.60;;;;;;;;;;5138144;27;20313;-87
2023/08/05 11:56:42;;;;;;;1.38;0.80;;;;;;;;;;5138472;27;20287;-88
2023/08/05 11:59:14;;;;;;;1.85;0.63;;;;;;;;;;5137913;27;20213;-88
2023/08/05 12:01:42;;;;;;;1.13;0.60;;;;;;;;;;5137829;27;20257;-90
2023/08/05 12:04:09;;;;;;;0.90;0.50;;;;;;;;;;5137403;27;20293;-87
2023/08/05 12:06:36;;;;;;;1.05;0.65;;;;;;;;;;5138107;27;20350;-89
2023/08/05 12:09:04;;;;;;;1.65;0.45;;;;;;;;;;5138633;27;20216;-90
2023/08/05 12:11:31;;;;;;;2.17;1.30;;;;;;;;;;5138375;27;20202;-88
2023/08/05 12:13:59;;;;;;;1.73;1.40;;;;;;;;;;5137765;27;20280;-89
2023/08/05 12:16:30;;;;;;;1.13;1.02;;;;;;;;;;5137940;27;20649;-90
2023/08/05 12:18:58;;;;;;;1.10;0.50;;;;;;;;;;5137800;27;20189;-89
2023/08/05 12:21:25;;;;;;;0.38;0.30;;;;;;;;;;5138185;27;20657;-88
2023/08/05 12:23:52;;;;;;;0.60;0.50;;;;;;;;;;5137650;27;20213;-89
2023/08/05 12:26:26;;;;;;;0.63;0.40;;;;;;;;;;5139179;27;20276;-91
2023/08/05 12:28:54;;;;;;;0.75;0.50;;;;;;;;;;5139137;27;20195;-91
2023/08/05 12:31:21;;;;;;;1.83;0.80;;;;;;;;;;5138858;27;20276;-89
2023/08/05 12:33:50;;;;;;;1.27;0.75;;;;;;;;;;5138298;27;20224;-89
2023/08/05 12:36:17;;;;;;;1.23;0.90;;;;;;;;;;5137885;27;20556;-89
2023/08/05 12:38:48;;;;;;;3.45;2.88;;;;;;;;;;5137519;27;20755;-90
2023/08/05 12:41:15;;;;;;;16.65;12.20;;;;;;;;;;5137439;27;20657;-90
2023/08/05 12:43:42;;;;;;;10.55;8.35;;;;;;;;;;5137312;27;20228;-90
2023/08/05 12:46:10;;;;;;;12.45;9.00;;;;;;;;;;5137595;27;20237;-91
2023/08/05 12:48:37;;;;;;;18.02;6.18;;;;;;;;;;5137667;27;20247;-90
2023/08/05 12:51:05;;;;;;;4.95;2.78;;;;;;;;;;5137630;27;20216;-90
2023/08/05 12:53:33;;;;;;;3.13;1.33;;;;;;;;;;5137501;27;20225;-89
2023/08/05 12:56:00;;;;;;;5.80;1.95;;;;;;;;;;5136121;27;20220;-89
2023/08/05 12:58:27;;;;;;;4.22;2.95;;;;;;;;;;5136632;27;20233;-92
2023/08/05 13:00:54;;;;;;;5.40;1.88;;;;;;;;;;5137191;27;20654;-92
2023/08/05 13:03:21;;;;;;;7.18;1.45;;;;;;;;;;5137164;27;20757;-93
2023/08/05 13:05:49;;;;;;;5.78;1.80;;;;;;;;;;5137357;27;20280;-92
2023/08/05 13:08:18;;;;;;;5.70;1.40;;;;;;;;;;5137267;27;20190;-92
2023/08/05 13:10:45;;;;;;;6.47;1.70;;;;;;;;;;5137596;27;20276;-92
2023/08/05 13:13:12;;;;;;;6.80;1.63;;;;;;;;;;5138125;27;20224;-93
2023/08/05 13:15:39;;;;;;;5.25;1.80;;;;;;;;;;5136578;27;20215;-93
2023/08/05 13:18:06;;;;;;;6.93;2.05;;;;;;;;;;5115782;28;20355;-94
2023/08/05 13:20:34;;;;;;;8.75;2.30;;;;;;;;;;5116416;28;20277;-93
2023/08/05 13:23:02;;;;;;;6.88;4.18;;;;;;;;;;5116459;28;20221;-92
2023/08/05 13:25:30;;;;;;;7.45;2.75;;;;;;;;;;5116632;28;20294;-92
2023/08/05 13:27:58;;;;;;;6.47;1.95;;;;;;;;;;5116403;28;20698;-92
2023/08/05 13:30:25;;;;;;;8.63;3.15;;;;;;;;;;5116205;28;20213;-92
2023/08/05 13:32:52;;;;;;;8.57;2.50;;;;;;;;;;5115750;28;20255;-93
2023/08/05 13:35:20;;;;;;;6.20;1.90;;;;;;;;;;5116148;28;20217;-94
2023/08/05 13:37:47;;;;;;;7.75;2.20;;;;;;;;;;5115915;28;20272;-93
2023/08/05 13:40:14;;;;;;;5.47;1.60;;;;;;;;;;5116258;28;20280;-94
2023/08/05 13:42:43;;;;;;;7.63;1.92;;;;;;;;;;5115892;28;20190;-94
2023/08/05 13:45:10;;;;;;;6.28;2.10;;;;;;;;;;5115439;28;20646;-93
2023/08/05 13:47:38;;;;;;;6.38;1.80;;;;;;;;;;5116233;28;20628;-91
2023/08/05 13:50:06;;;;;;;6.00;2.30;;;;;;;;;;5115937;28;20186;-93
2023/08/05 13:52:33;;;;;;;7.22;2.17;;;;;;;;;;5116022;28;20601;-92
2023/08/05 13:55:01;;;;;;;7.22;2.40;;;;;;;;;;5115905;28;20217;-92
2023/08/05 13:57:28;;;;;;;7.93;2.20;;;;;;;;;;5116032;28;20718;-92
2023/08/05 13:59:58;;;;;;;6.45;1.83;;;;;;;;;;5114935;28;20229;-92
2023/08/05 14:02:24;;;;;;;7.35;2.15;;;;;;;;;;5116069;28;20186;-92
2023/08/05 14:04:52;;;;;;;9.10;1.67;;;;;;;;;;5115635;28;20217;-91
2023/08/05 14:07:19;;;;;;;6.40;2.42;;;;;;;;;;5115379;28;20625;-92
2023/08/05 14:09:46;;;;;;;7.85;2.03;;;;;;;;;;5115209;28;20636;-89
2023/08/05 14:12:13;;;;;;;6.72;2.05;;;;;;;;;;5115424;28;20217;-91
2023/08/05 14:14:41;;;;;;;8.50;2.30;;;;;;;;;;5114933;28;20745;-92
2023/08/05 14:17:09;;;;;;;8.02;2.05;;;;;;;;;;5115292;28;20721;-91
2023/08/05 14:19:37;;;;;;;4.63;1.98;;;;;;;;;;5115100;28;20223;-91
2023/08/05 14:22:04;;;;;;;6.32;2.10;;;;;;;;;;5114966;28;20221;-90
2023/08/05 14:24:31;;;;;;;10.75;2.70;;;;;;;;;;5115423;28;20655;-91
2023/08/05 14:26:59;;;;;;;6.68;1.95;;;;;;;;;;5115393;28;20276;-90
2023/08/05 14:29:26;;;;;;;7.88;2.13;;;;;;;;;;5115191;28;20221;-90
2023/08/05 14:31:53;;;;;;;10.05;2.55;;;;;;;;;;5115691;28;20229;-91
2023/08/05 14:34:22;;;;;;;7.75;2.40;;;;;;;;;;5115421;28;20231;-91
2023/08/05 14:36:50;;;;;;;9.38;2.30;;;;;;;;;;5116477;28;20713;-91
2023/08/05 14:39:17;;;;;;;10.60;2.50;;;;;;;;;;5116057;28;20560;-90
2023/08/05 14:41:44;;;;;;;11.00;2.50;;;;;;;;;;5115646;28;20228;-92
2023/08/05 14:44:11;;;;;;;9.25;2.50;;;;;;;;;;5114694;28;20255;-92